sensor_id;sensor_type;location;lat;lon;timestamp;P1;durP1;ratioP1;P2;durP2;ratioP2
14080;SDS011;7116;52.152;5.392;2022-08-19T00:02:06;4.73;;;3.53;;
14080;SDS011;7116;52.152;5.392;2022-08-19T00:04:33;4.67;;;3.50;;
14080;SDS011;7116;52.152;5.392;2022-08-19T00:07:01;4.63;;;3.42;;
14080;SDS011;7116;52.152;5.392;2022-08-19T00:09:26;4.27;;;3.27;;
14080;SDS011;7116;52.152;5.392;2022-08-19T00:11:52;4.87;;;3.30;;
14080;SDS011;7116;52.152;5.392;2022-08-19T00:14:18;3.83;;;3.13;;
14080;SDS011;7116;52.152;5.392;2022-08-19T00:16:44;8.07;;;3.30;;
14080;SDS011;7116;52.152;5.392;2022-08-19T00:19:09;5.27;;;3.57;;
14080;SDS011;7116;52.152;5.392;2022-08-19T00:21:35;5.67;;;3.30;;
14080;SDS011;7116;52.152;5.392;2022-08-19T00:24:04;4.00;;;3.20;;
14080;SDS011;7116;52.152;5.392;2022-08-19T00:26:30;4.33;;;3.20;;
14080;SDS011;7116;52.152;5.392;2022-08-19T00:28:55;5.10;;;3.10;;
14080;SDS011;7116;52.152;5.392;2022-08-19T00:31:20;3.80;;;3.03;;
14080;SDS011;7116;52.152;5.392;2022-08-19T00:33:46;5.20;;;3.57;;
14080;SDS011;7116;52.152;5.392;2022-08-19T00:36:14;4.33;;;3.33;;
14080;SDS011;7116;52.152;5.392;2022-08-19T00:38:39;6.00;;;3.50;;
14080;SDS011;7116;52.152;5.392;2022-08-19T00:41:08;4.68;;;3.65;;
14080;SDS011;7116;52.152;5.392;2022-08-19T00:43:34;5.43;;;3.80;;
14080;SDS011;7116;52.152;5.392;2022-08-19T00:45:59;6.03;;;3.50;;
14080;SDS011;7116;52.152;5.392;2022-08-19T00:48:27;4.43;;;3.25;;
14080;SDS011;7116;52.152;5.392;2022-08-19T00:50:53;5.93;;;3.57;;
14080;SDS011;7116;52.152;5.392;2022-08-19T00:53:20;4.68;;;3.17;;
14080;SDS011;7116;52.152;5.392;2022-08-19T00:55:46;4.82;;;3.63;;
14080;SDS011;7116;52.152;5.392;2022-08-19T00:58:14;4.77;;;3.33;;
14080;SDS011;7116;52.152;5.392;2022-08-19T01:00:39;5.53;;;3.10;;
14080;SDS011;7116;52.152;5.392;2022-08-19T01:03:06;4.10;;;2.87;;
14080;SDS011;7116;52.152;5.392;2022-08-19T01:05:31;6.68;;;3.40;;
14080;SDS011;7116;52.152;5.392;2022-08-19T01:07:57;5.43;;;3.10;;
14080;SDS011;7116;52.152;5.392;2022-08-19T01:10:25;4.45;;;3.30;;
14080;SDS011;7116;52.152;5.392;2022-08-19T01:12:51;6.45;;;3.30;;
14080;SDS011;7116;52.152;5.392;2022-08-19T01:15:23;4.80;;;3.53;;
14080;SDS011;7116;52.152;5.392;2022-08-19T01:17:49;4.47;;;3.25;;
14080;SDS011;7116;52.152;5.392;2022-08-19T01:20:17;4.57;;;3.55;;
14080;SDS011;7116;52.152;5.392;2022-08-19T01:22:44;5.83;;;3.23;;
14080;SDS011;7116;52.152;5.392;2022-08-19T01:25:10;4.28;;;3.17;;
14080;SDS011;7116;52.152;5.392;2022-08-19T01:27:38;5.87;;;3.23;;
14080;SDS011;7116;52.152;5.392;2022-08-19T01:30:05;4.53;;;3.35;;
14080;SDS011;7116;52.152;5.392;2022-08-19T01:32:30;6.05;;;3.60;;
14080;SDS011;7116;52.152;5.392;2022-08-19T01:34:56;4.00;;;3.53;;
14080;SDS011;7116;52.152;5.392;2022-08-19T01:37:21;4.43;;;3.77;;
14080;SDS011;7116;52.152;5.392;2022-08-19T01:39:46;6.55;;;3.65;;
14080;SDS011;7116;52.152;5.392;2022-08-19T01:42:11;6.37;;;4.07;;
14080;SDS011;7116;52.152;5.392;2022-08-19T01:44:37;5.50;;;3.53;;
14080;SDS011;7116;52.152;5.392;2022-08-19T01:47:03;4.38;;;3.50;;
14080;SDS011;7116;52.152;5.392;2022-08-19T01:49:28;5.33;;;3.50;;
14080;SDS011;7116;52.152;5.392;2022-08-19T01:51:54;5.93;;;3.57;;
14080;SDS011;7116;52.152;5.392;2022-08-19T01:54:20;4.18;;;3.33;;
14080;SDS011;7116;52.152;5.392;2022-08-19T01:56:46;6.07;;;3.73;;
14080;SDS011;7116;52.152;5.392;2022-08-19T01:59:12;8.50;;;4.30;;
14080;SDS011;7116;52.152;5.392;2022-08-19T02:01:38;9.02;;;4.18;;
14080;SDS011;7116;52.152;5.392;2022-08-19T02:04:03;6.47;;;4.20;;
14080;SDS011;7116;52.152;5.392;2022-08-19T02:06:30;7.95;;;4.63;;
14080;SDS011;7116;52.152;5.392;2022-08-19T02:08:55;5.97;;;4.27;;
14080;SDS011;7116;52.152;5.392;2022-08-19T02:11:24;5.17;;;3.67;;
14080;SDS011;7116;52.152;5.392;2022-08-19T02:13:51;7.40;;;4.28;;
14080;SDS011;7116;52.152;5.392;2022-08-19T02:16:17;7.43;;;4.63;;
14080;SDS011;7116;52.152;5.392;2022-08-19T02:18:43;7.78;;;4.00;;
14080;SDS011;7116;52.152;5.392;2022-08-19T02:21:08;6.03;;;4.77;;
14080;SDS011;7116;52.152;5.392;2022-08-19T02:23:33;7.10;;;5.15;;
14080;SDS011;7116;52.152;5.392;2022-08-19T02:25:59;6.00;;;4.97;;
14080;SDS011;7116;52.152;5.392;2022-08-19T02:28:24;7.60;;;4.75;;
14080;SDS011;7116;52.152;5.392;2022-08-19T02:30:49;5.60;;;4.70;;
14080;SDS011;7116;52.152;5.392;2022-08-19T02:33:14;4.97;;;3.73;;
14080;SDS011;7116;52.152;5.392;2022-08-19T02:35:43;8.30;;;4.87;;
14080;SDS011;7116;52.152;5.392;2022-08-19T02:38:09;6.85;;;5.63;;
14080;SDS011;7116;52.152;5.392;2022-08-19T02:40:54;7.07;;;4.93;;
14080;SDS011;7116;52.152;5.392;2022-08-19T02:43:19;7.65;;;5.20;;
14080;SDS011;7116;52.152;5.392;2022-08-19T02:45:45;6.30;;;4.43;;
14080;SDS011;7116;52.152;5.392;2022-08-19T02:48:10;5.33;;;4.63;;
14080;SDS011;7116;52.152;5.392;2022-08-19T02:50:39;8.00;;;5.77;;
14080;SDS011;7116;52.152;5.392;2022-08-19T02:53:05;10.18;;;6.35;;
14080;SDS011;7116;52.152;5.392;2022-08-19T02:55:32;10.98;;;5.88;;
14080;SDS011;7116;52.152;5.392;2022-08-19T02:57:57;6.67;;;5.17;;
14080;SDS011;7116;52.152;5.392;2022-08-19T03:00:22;6.53;;;5.20;;
14080;SDS011;7116;52.152;5.392;2022-08-19T03:02:49;6.82;;;4.93;;
14080;SDS011;7116;52.152;5.392;2022-08-19T03:05:14;8.00;;;5.00;;
14080;SDS011;7116;52.152;5.392;2022-08-19T03:07:39;7.40;;;5.50;;
14080;SDS011;7116;52.152;5.392;2022-08-19T03:10:04;7.57;;;5.60;;
14080;SDS011;7116;52.152;5.392;2022-08-19T03:12:30;6.83;;;5.47;;
14080;SDS011;7116;52.152;5.392;2022-08-19T03:14:55;7.43;;;6.10;;
14080;SDS011;7116;52.152;5.392;2022-08-19T03:17:21;8.80;;;5.20;;
14080;SDS011;7116;52.152;5.392;2022-08-19T03:19:46;8.77;;;5.90;;
14080;SDS011;7116;52.152;5.392;2022-08-19T03:22:11;9.80;;;5.75;;
14080;SDS011;7116;52.152;5.392;2022-08-19T03:24:37;8.40;;;5.90;;
14080;SDS011;7116;52.152;5.392;2022-08-19T03:27:02;8.02;;;6.20;;
14080;SDS011;7116;52.152;5.392;2022-08-19T03:29:30;8.10;;;5.65;;
14080;SDS011;7116;52.152;5.392;2022-08-19T03:31:56;7.40;;;6.43;;
14080;SDS011;7116;52.152;5.392;2022-08-19T03:34:23;10.57;;;6.28;;
14080;SDS011;7116;52.152;5.392;2022-08-19T03:36:51;7.93;;;5.85;;
14080;SDS011;7116;52.152;5.392;2022-08-19T03:39:16;9.80;;;6.60;;
14080;SDS011;7116;52.152;5.392;2022-08-19T03:41:42;7.13;;;6.03;;
14080;SDS011;7116;52.152;5.392;2022-08-19T03:44:07;10.27;;;6.00;;
14080;SDS011;7116;52.152;5.392;2022-08-19T03:46:33;9.33;;;5.77;;
14080;SDS011;7116;52.152;5.392;2022-08-19T03:49:00;10.82;;;6.30;;
14080;SDS011;7116;52.152;5.392;2022-08-19T03:51:28;7.57;;;5.13;;
14080;SDS011;7116;52.152;5.392;2022-08-19T03:53:54;9.63;;;5.57;;
14080;SDS011;7116;52.152;5.392;2022-08-19T03:56:20;8.77;;;5.50;;
14080;SDS011;7116;52.152;5.392;2022-08-19T03:58:45;7.50;;;6.20;;
14080;SDS011;7116;52.152;5.392;2022-08-19T04:01:20;8.33;;;6.13;;
14080;SDS011;7116;52.152;5.392;2022-08-19T04:03:45;8.70;;;6.93;;
14080;SDS011;7116;52.152;5.392;2022-08-19T04:06:15;8.50;;;6.20;;
14080;SDS011;7116;52.152;5.392;2022-08-19T04:08:41;11.07;;;6.22;;
14080;SDS011;7116;52.152;5.392;2022-08-19T04:11:12;7.72;;;6.43;;
14080;SDS011;7116;52.152;5.392;2022-08-19T04:13:37;7.45;;;5.72;;
14080;SDS011;7116;52.152;5.392;2022-08-19T04:16:03;8.93;;;6.50;;
14080;SDS011;7116;52.152;5.392;2022-08-19T04:18:29;10.25;;;6.15;;
14080;SDS011;7116;52.152;5.392;2022-08-19T04:20:57;7.90;;;6.53;;
14080;SDS011;7116;52.152;5.392;2022-08-19T04:23:22;9.40;;;6.77;;
14080;SDS011;7116;52.152;5.392;2022-08-19T04:25:48;8.60;;;6.90;;
14080;SDS011;7116;52.152;5.392;2022-08-19T04:28:13;7.60;;;6.10;;
14080;SDS011;7116;52.152;5.392;2022-08-19T04:30:39;9.03;;;5.80;;
14080;SDS011;7116;52.152;5.392;2022-08-19T04:33:05;7.07;;;5.68;;
14080;SDS011;7116;52.152;5.392;2022-08-19T04:35:40;7.70;;;6.50;;
14080;SDS011;7116;52.152;5.392;2022-08-19T04:38:06;10.73;;;6.43;;
14080;SDS011;7116;52.152;5.392;2022-08-19T04:40:32;9.65;;;6.97;;
14080;SDS011;7116;52.152;5.392;2022-08-19T04:43:16;9.20;;;6.30;;
14080;SDS011;7116;52.152;5.392;2022-08-19T04:45:44;8.40;;;6.05;;
14080;SDS011;7116;52.152;5.392;2022-08-19T04:48:10;12.23;;;7.43;;
14080;SDS011;7116;52.152;5.392;2022-08-19T04:50:36;10.55;;;8.10;;
14080;SDS011;7116;52.152;5.392;2022-08-19T04:53:01;10.80;;;7.40;;
14080;SDS011;7116;52.152;5.392;2022-08-19T04:55:26;9.93;;;7.73;;
14080;SDS011;7116;52.152;5.392;2022-08-19T04:57:51;9.90;;;7.30;;
14080;SDS011;7116;52.152;5.392;2022-08-19T05:00:17;9.47;;;6.53;;
14080;SDS011;7116;52.152;5.392;2022-08-19T05:02:43;9.23;;;6.13;;
14080;SDS011;7116;52.152;5.392;2022-08-19T05:05:08;8.10;;;6.28;;
14080;SDS011;7116;52.152;5.392;2022-08-19T05:07:33;8.23;;;6.57;;
14080;SDS011;7116;52.152;5.392;2022-08-19T05:09:59;9.32;;;6.55;;
14080;SDS011;7116;52.152;5.392;2022-08-19T05:12:24;9.67;;;6.73;;
14080;SDS011;7116;52.152;5.392;2022-08-19T05:14:49;8.63;;;6.80;;
14080;SDS011;7116;52.152;5.392;2022-08-19T05:17:15;7.87;;;6.90;;
14080;SDS011;7116;52.152;5.392;2022-08-19T05:19:40;8.60;;;6.93;;
14080;SDS011;7116;52.152;5.392;2022-08-19T05:22:23;7.82;;;6.38;;
14080;SDS011;7116;52.152;5.392;2022-08-19T05:25:04;7.80;;;6.00;;
14080;SDS011;7116;52.152;5.392;2022-08-19T05:27:30;8.80;;;6.03;;
14080;SDS011;7116;52.152;5.392;2022-08-19T05:29:55;8.02;;;6.20;;
14080;SDS011;7116;52.152;5.392;2022-08-19T05:32:20;10.00;;;6.90;;
14080;SDS011;7116;52.152;5.392;2022-08-19T05:34:48;8.97;;;6.70;;
14080;SDS011;7116;52.152;5.392;2022-08-19T05:37:13;9.00;;;6.50;;
14080;SDS011;7116;52.152;5.392;2022-08-19T05:39:38;8.27;;;6.77;;
14080;SDS011;7116;52.152;5.392;2022-08-19T05:42:06;9.10;;;6.72;;
14080;SDS011;7116;52.152;5.392;2022-08-19T05:44:32;9.18;;;6.75;;
14080;SDS011;7116;52.152;5.392;2022-08-19T05:46:58;11.20;;;8.27;;
14080;SDS011;7116;52.152;5.392;2022-08-19T05:49:24;10.90;;;8.30;;
14080;SDS011;7116;52.152;5.392;2022-08-19T05:51:50;12.20;;;8.50;;
14080;SDS011;7116;52.152;5.392;2022-08-19T05:54:15;14.48;;;9.77;;
14080;SDS011;7116;52.152;5.392;2022-08-19T05:56:41;17.03;;;9.77;;
14080;SDS011;7116;52.152;5.392;2022-08-19T05:59:07;14.13;;;10.60;;
14080;SDS011;7116;52.152;5.392;2022-08-19T06:01:34;14.10;;;9.25;;
14080;SDS011;7116;52.152;5.392;2022-08-19T06:03:59;19.03;;;12.60;;
14080;SDS011;7116;52.152;5.392;2022-08-19T06:06:25;18.80;;;12.37;;
14080;SDS011;7116;52.152;5.392;2022-08-19T06:08:50;21.15;;;13.57;;
14080;SDS011;7116;52.152;5.392;2022-08-19T06:13:40;25.73;;;17.20;;
14080;SDS011;7116;52.152;5.392;2022-08-19T06:16:06;27.80;;;17.60;;
14080;SDS011;7116;52.152;5.392;2022-08-19T06:18:31;32.57;;;18.30;;
14080;SDS011;7116;52.152;5.392;2022-08-19T06:20:57;30.70;;;20.00;;
14080;SDS011;7116;52.152;5.392;2022-08-19T06:23:23;28.43;;;18.23;;
14080;SDS011;7116;52.152;5.392;2022-08-19T06:25:48;27.75;;;17.17;;
14080;SDS011;7116;52.152;5.392;2022-08-19T06:28:13;25.70;;;16.07;;
14080;SDS011;7116;52.152;5.392;2022-08-19T06:30:39;22.43;;;15.27;;
14080;SDS011;7116;52.152;5.392;2022-08-19T06:33:04;24.93;;;15.90;;
14080;SDS011;7116;52.152;5.392;2022-08-19T06:35:29;23.97;;;16.00;;
14080;SDS011;7116;52.152;5.392;2022-08-19T06:37:54;23.07;;;15.07;;
14080;SDS011;7116;52.152;5.392;2022-08-19T06:40:20;22.83;;;16.33;;
14080;SDS011;7116;52.152;5.392;2022-08-19T06:42:45;23.10;;;16.40;;
14080;SDS011;7116;52.152;5.392;2022-08-19T06:45:10;23.40;;;15.90;;
14080;SDS011;7116;52.152;5.392;2022-08-19T06:47:35;26.53;;;17.67;;
14080;SDS011;7116;52.152;5.392;2022-08-19T06:50:01;28.17;;;17.90;;
14080;SDS011;7116;52.152;5.392;2022-08-19T06:52:31;30.85;;;18.08;;
14080;SDS011;7116;52.152;5.392;2022-08-19T06:54:57;28.75;;;18.50;;
14080;SDS011;7116;52.152;5.392;2022-08-19T06:57:23;31.50;;;18.50;;
14080;SDS011;7116;52.152;5.392;2022-08-19T06:59:48;36.25;;;21.25;;
14080;SDS011;7116;52.152;5.392;2022-08-19T07:02:13;33.13;;;19.27;;
14080;SDS011;7116;52.152;5.392;2022-08-19T07:04:38;32.33;;;18.70;;
14080;SDS011;7116;52.152;5.392;2022-08-19T07:07:05;40.33;;;21.10;;
14080;SDS011;7116;52.152;5.392;2022-08-19T07:09:32;36.55;;;19.52;;
14080;SDS011;7116;52.152;5.392;2022-08-19T07:11:57;36.53;;;20.93;;
14080;SDS011;7116;52.152;5.392;2022-08-19T07:14:24;32.27;;;18.73;;
14080;SDS011;7116;52.152;5.392;2022-08-19T07:16:50;36.47;;;19.40;;
14080;SDS011;7116;52.152;5.392;2022-08-19T07:19:16;39.40;;;21.77;;
14080;SDS011;7116;52.152;5.392;2022-08-19T07:21:42;35.73;;;21.53;;
14080;SDS011;7116;52.152;5.392;2022-08-19T07:24:07;41.60;;;23.33;;
14080;SDS011;7116;52.152;5.392;2022-08-19T07:26:33;36.85;;;21.30;;
14080;SDS011;7116;52.152;5.392;2022-08-19T07:29:02;35.77;;;20.97;;
14080;SDS011;7116;52.152;5.392;2022-08-19T07:31:35;38.53;;;21.87;;
14080;SDS011;7116;52.152;5.392;2022-08-19T07:34:02;37.38;;;21.73;;
14080;SDS011;7116;52.152;5.392;2022-08-19T07:36:28;36.92;;;21.50;;
14080;SDS011;7116;52.152;5.392;2022-08-19T07:38:58;37.92;;;21.38;;
14080;SDS011;7116;52.152;5.392;2022-08-19T07:41:25;36.00;;;21.95;;
14080;SDS011;7116;52.152;5.392;2022-08-19T07:43:50;40.90;;;24.23;;
14080;SDS011;7116;52.152;5.392;2022-08-19T07:46:16;36.83;;;21.33;;
14080;SDS011;7116;52.152;5.392;2022-08-19T07:48:42;35.73;;;20.97;;
14080;SDS011;7116;52.152;5.392;2022-08-19T07:51:09;38.03;;;22.37;;
14080;SDS011;7116;52.152;5.392;2022-08-19T07:53:35;37.00;;;21.40;;
14080;SDS011;7116;52.152;5.392;2022-08-19T07:56:00;34.95;;;21.15;;
14080;SDS011;7116;52.152;5.392;2022-08-19T07:58:27;32.97;;;20.67;;
14080;SDS011;7116;52.152;5.392;2022-08-19T08:00:53;33.80;;;20.57;;
14080;SDS011;7116;52.152;5.392;2022-08-19T08:03:19;35.40;;;21.53;;
14080;SDS011;7116;52.152;5.392;2022-08-19T08:05:44;32.83;;;19.20;;
14080;SDS011;7116;52.152;5.392;2022-08-19T08:08:28;28.88;;;18.27;;
14080;SDS011;7116;52.152;5.392;2022-08-19T08:11:13;31.80;;;19.20;;
14080;SDS011;7116;52.152;5.392;2022-08-19T08:13:38;35.50;;;19.73;;
14080;SDS011;7116;52.152;5.392;2022-08-19T08:16:06;29.65;;;18.92;;
14080;SDS011;7116;52.152;5.392;2022-08-19T08:18:31;32.22;;;19.25;;
14080;SDS011;7116;52.152;5.392;2022-08-19T08:20:58;30.88;;;18.88;;
14080;SDS011;7116;52.152;5.392;2022-08-19T08:23:23;28.80;;;18.00;;
14080;SDS011;7116;52.152;5.392;2022-08-19T08:25:50;30.25;;;18.98;;
14080;SDS011;7116;52.152;5.392;2022-08-19T08:28:16;30.13;;;18.83;;
14080;SDS011;7116;52.152;5.392;2022-08-19T08:30:41;28.70;;;18.73;;
14080;SDS011;7116;52.152;5.392;2022-08-19T08:33:08;28.02;;;17.42;;
14080;SDS011;7116;52.152;5.392;2022-08-19T08:35:33;29.23;;;17.70;;
14080;SDS011;7116;52.152;5.392;2022-08-19T08:37:59;25.65;;;17.38;;
14080;SDS011;7116;52.152;5.392;2022-08-19T08:43:25;28.90;;;15.57;;
14080;SDS011;7116;52.152;5.392;2022-08-19T08:46:00;28.98;;;16.50;;
14080;SDS011;7116;52.152;5.392;2022-08-19T08:48:30;25.50;;;15.10;;
14080;SDS011;7116;52.152;5.392;2022-08-19T08:50:58;25.17;;;15.18;;
14080;SDS011;7116;52.152;5.392;2022-08-19T08:53:23;24.70;;;14.00;;
14080;SDS011;7116;52.152;5.392;2022-08-19T08:55:49;23.60;;;13.70;;
14080;SDS011;7116;52.152;5.392;2022-08-19T08:58:16;23.53;;;14.60;;
14080;SDS011;7116;52.152;5.392;2022-08-19T09:00:46;23.45;;;14.43;;
14080;SDS011;7116;52.152;5.392;2022-08-19T09:03:27;23.85;;;13.90;;
14080;SDS011;7116;52.152;5.392;2022-08-19T09:10:53;20.80;;;13.03;;
14080;SDS011;7116;52.152;5.392;2022-08-19T09:15:55;19.60;;;13.32;;
14080;SDS011;7116;52.152;5.392;2022-08-19T09:18:22;20.35;;;14.43;;
14080;SDS011;7116;52.152;5.392;2022-08-19T09:20:47;24.03;;;13.83;;
14080;SDS011;7116;52.152;5.392;2022-08-19T09:23:12;18.07;;;12.47;;
14080;SDS011;7116;52.152;5.392;2022-08-19T09:25:38;15.77;;;11.47;;
14080;SDS011;7116;52.152;5.392;2022-08-19T09:28:05;18.95;;;12.55;;
14080;SDS011;7116;52.152;5.392;2022-08-19T09:30:31;20.33;;;11.93;;
14080;SDS011;7116;52.152;5.392;2022-08-19T09:32:57;17.15;;;11.55;;
14080;SDS011;7116;52.152;5.392;2022-08-19T09:35:23;18.60;;;11.87;;
14080;SDS011;7116;52.152;5.392;2022-08-19T09:37:48;18.35;;;12.07;;
14080;SDS011;7116;52.152;5.392;2022-08-19T09:40:14;17.03;;;11.73;;
14080;SDS011;7116;52.152;5.392;2022-08-19T09:42:40;17.75;;;12.98;;
14080;SDS011;7116;52.152;5.392;2022-08-19T09:45:06;18.80;;;11.70;;
14080;SDS011;7116;52.152;5.392;2022-08-19T09:47:31;14.67;;;10.90;;
14080;SDS011;7116;52.152;5.392;2022-08-19T09:50:02;16.33;;;11.20;;
14080;SDS011;7116;52.152;5.392;2022-08-19T09:52:28;15.33;;;10.33;;
14080;SDS011;7116;52.152;5.392;2022-08-19T09:54:53;21.13;;;9.17;;
14080;SDS011;7116;52.152;5.392;2022-08-19T09:57:18;17.27;;;10.50;;
14080;SDS011;7116;52.152;5.392;2022-08-19T09:59:43;16.20;;;11.00;;
14080;SDS011;7116;52.152;5.392;2022-08-19T10:02:09;17.27;;;10.95;;
14080;SDS011;7116;52.152;5.392;2022-08-19T10:04:35;13.30;;;9.50;;
14080;SDS011;7116;52.152;5.392;2022-08-19T10:07:29;19.40;;;10.07;;
14080;SDS011;7116;52.152;5.392;2022-08-19T10:09:55;13.60;;;9.20;;
14080;SDS011;7116;52.152;5.392;2022-08-19T10:12:20;15.47;;;9.40;;
14080;SDS011;7116;52.152;5.392;2022-08-19T10:14:45;14.70;;;8.83;;
14080;SDS011;7116;52.152;5.392;2022-08-19T10:17:11;14.97;;;9.70;;
14080;SDS011;7116;52.152;5.392;2022-08-19T10:19:36;14.83;;;9.57;;
14080;SDS011;7116;52.152;5.392;2022-08-19T10:22:02;16.93;;;10.50;;
14080;SDS011;7116;52.152;5.392;2022-08-19T10:24:28;12.40;;;8.40;;
14080;SDS011;7116;52.152;5.392;2022-08-19T10:26:53;13.80;;;8.90;;
14080;SDS011;7116;52.152;5.392;2022-08-19T10:29:18;19.05;;;9.30;;
14080;SDS011;7116;52.152;5.392;2022-08-19T10:31:43;13.45;;;9.40;;
14080;SDS011;7116;52.152;5.392;2022-08-19T10:34:09;15.93;;;10.07;;
14080;SDS011;7116;52.152;5.392;2022-08-19T10:36:35;15.30;;;10.83;;
14080;SDS011;7116;52.152;5.392;2022-08-19T10:39:02;14.73;;;10.43;;
14080;SDS011;7116;52.152;5.392;2022-08-19T10:41:28;16.98;;;10.55;;
14080;SDS011;7116;52.152;5.392;2022-08-19T10:43:55;18.02;;;10.15;;
14080;SDS011;7116;52.152;5.392;2022-08-19T10:46:22;14.85;;;10.00;;
14080;SDS011;7116;52.152;5.392;2022-08-19T10:48:48;16.83;;;10.65;;
14080;SDS011;7116;52.152;5.392;2022-08-19T10:51:13;17.40;;;10.27;;
14080;SDS011;7116;52.152;5.392;2022-08-19T10:53:57;17.63;;;11.88;;
14080;SDS011;7116;52.152;5.392;2022-08-19T10:56:23;16.70;;;12.20;;
14080;SDS011;7116;52.152;5.392;2022-08-19T10:59:07;15.77;;;10.70;;
14080;SDS011;7116;52.152;5.392;2022-08-19T11:01:33;16.97;;;10.43;;
14080;SDS011;7116;52.152;5.392;2022-08-19T11:03:59;16.70;;;11.38;;
14080;SDS011;7116;52.152;5.392;2022-08-19T11:06:24;17.45;;;12.48;;
14080;SDS011;7116;52.152;5.392;2022-08-19T11:08:53;20.33;;;11.55;;
14080;SDS011;7116;52.152;5.392;2022-08-19T11:11:19;18.43;;;12.67;;
14080;SDS011;7116;52.152;5.392;2022-08-19T11:13:44;18.15;;;11.13;;
14080;SDS011;7116;52.152;5.392;2022-08-19T11:16:18;17.45;;;12.43;;
14080;SDS011;7116;52.152;5.392;2022-08-19T11:18:44;19.80;;;13.10;;
14080;SDS011;7116;52.152;5.392;2022-08-19T11:21:14;16.35;;;12.93;;
14080;SDS011;7116;52.152;5.392;2022-08-19T11:23:41;15.25;;;11.73;;
14080;SDS011;7116;52.152;5.392;2022-08-19T11:26:08;18.35;;;12.93;;
14080;SDS011;7116;52.152;5.392;2022-08-19T11:28:33;17.20;;;12.20;;
14080;SDS011;7116;52.152;5.392;2022-08-19T11:30:58;21.37;;;12.30;;
14080;SDS011;7116;52.152;5.392;2022-08-19T11:33:24;16.27;;;10.73;;
14080;SDS011;7116;52.152;5.392;2022-08-19T11:35:51;18.88;;;12.40;;
14080;SDS011;7116;52.152;5.392;2022-08-19T11:38:16;16.87;;;12.47;;
14080;SDS011;7116;52.152;5.392;2022-08-19T11:40:41;15.50;;;10.53;;
14080;SDS011;7116;52.152;5.392;2022-08-19T11:43:07;18.43;;;12.10;;
14080;SDS011;7116;52.152;5.392;2022-08-19T11:45:33;17.95;;;12.25;;
14080;SDS011;7116;52.152;5.392;2022-08-19T11:47:58;17.50;;;12.10;;
14080;SDS011;7116;52.152;5.392;2022-08-19T11:50:24;18.07;;;12.70;;
14080;SDS011;7116;52.152;5.392;2022-08-19T11:52:49;20.33;;;11.90;;
14080;SDS011;7116;52.152;5.392;2022-08-19T11:55:14;17.73;;;11.90;;
14080;SDS011;7116;52.152;5.392;2022-08-19T11:57:40;20.53;;;12.90;;
14080;SDS011;7116;52.152;5.392;2022-08-19T12:00:08;22.35;;;12.70;;
14080;SDS011;7116;52.152;5.392;2022-08-19T12:02:36;18.73;;;12.95;;
14080;SDS011;7116;52.152;5.392;2022-08-19T12:05:01;14.43;;;9.87;;
14080;SDS011;7116;52.152;5.392;2022-08-19T12:07:28;21.90;;;13.20;;
14080;SDS011;7116;52.152;5.392;2022-08-19T12:09:54;19.67;;;13.88;;
14080;SDS011;7116;52.152;5.392;2022-08-19T12:12:19;19.73;;;13.57;;
14080;SDS011;7116;52.152;5.392;2022-08-19T12:14:44;20.17;;;13.15;;
14080;SDS011;7116;52.152;5.392;2022-08-19T12:17:11;18.10;;;12.55;;
14080;SDS011;7116;52.152;5.392;2022-08-19T12:19:37;19.37;;;11.73;;
14080;SDS011;7116;52.152;5.392;2022-08-19T12:22:02;23.23;;;12.13;;
14080;SDS011;7116;52.152;5.392;2022-08-19T12:24:30;18.48;;;11.07;;
14080;SDS011;7116;52.152;5.392;2022-08-19T12:26:56;16.63;;;10.48;;
14080;SDS011;7116;52.152;5.392;2022-08-19T12:29:23;19.38;;;12.73;;
14080;SDS011;7116;52.152;5.392;2022-08-19T12:31:48;22.13;;;11.20;;
14080;SDS011;7116;52.152;5.392;2022-08-19T12:34:14;13.37;;;9.87;;
14080;SDS011;7116;52.152;5.392;2022-08-19T12:36:39;20.10;;;11.63;;
14080;SDS011;7116;52.152;5.392;2022-08-19T12:39:04;12.70;;;9.77;;
14080;SDS011;7116;52.152;5.392;2022-08-19T12:41:30;14.13;;;8.55;;
14080;SDS011;7116;52.152;5.392;2022-08-19T12:43:55;10.73;;;6.87;;
14080;SDS011;7116;52.152;5.392;2022-08-19T12:46:20;11.47;;;7.23;;
14080;SDS011;7116;52.152;5.392;2022-08-19T12:48:46;9.67;;;6.70;;
14080;SDS011;7116;52.152;5.392;2022-08-19T12:51:12;11.63;;;6.97;;
14080;SDS011;7116;52.152;5.392;2022-08-19T12:53:38;10.80;;;7.25;;
14080;SDS011;7116;52.152;5.392;2022-08-19T12:56:03;9.10;;;7.27;;
14080;SDS011;7116;52.152;5.392;2022-08-19T12:58:29;8.65;;;6.60;;
14080;SDS011;7116;52.152;5.392;2022-08-19T13:00:55;8.70;;;5.47;;
14080;SDS011;7116;52.152;5.392;2022-08-19T13:03:20;9.27;;;6.03;;
14080;SDS011;7116;52.152;5.392;2022-08-19T13:05:47;8.38;;;6.43;;
14080;SDS011;7116;52.152;5.392;2022-08-19T13:08:15;7.97;;;5.93;;
14080;SDS011;7116;52.152;5.392;2022-08-19T13:10:40;11.65;;;6.90;;
14080;SDS011;7116;52.152;5.392;2022-08-19T13:13:06;10.10;;;7.33;;
14080;SDS011;7116;52.152;5.392;2022-08-19T13:15:36;11.90;;;7.60;;
14080;SDS011;7116;52.152;5.392;2022-08-19T13:18:01;10.53;;;8.07;;
14080;SDS011;7116;52.152;5.392;2022-08-19T13:20:27;11.07;;;8.40;;
14080;SDS011;7116;52.152;5.392;2022-08-19T13:22:52;16.90;;;10.07;;
14080;SDS011;7116;52.152;5.392;2022-08-19T13:25:18;14.03;;;10.23;;
14080;SDS011;7116;52.152;5.392;2022-08-19T13:27:45;14.32;;;10.65;;
14080;SDS011;7116;52.152;5.392;2022-08-19T13:30:11;13.67;;;9.23;;
14080;SDS011;7116;52.152;5.392;2022-08-19T13:32:55;13.30;;;7.68;;
14080;SDS011;7116;52.152;5.392;2022-08-19T13:35:36;11.27;;;8.18;;
14080;SDS011;7116;52.152;5.392;2022-08-19T13:38:02;13.35;;;8.43;;
14080;SDS011;7116;52.152;5.392;2022-08-19T13:40:29;14.15;;;8.05;;
14080;SDS011;7116;52.152;5.392;2022-08-19T13:42:58;13.77;;;8.93;;
14080;SDS011;7116;52.152;5.392;2022-08-19T13:45:24;12.82;;;8.90;;
14080;SDS011;7116;52.152;5.392;2022-08-19T13:47:50;16.00;;;9.13;;
14080;SDS011;7116;52.152;5.392;2022-08-19T13:50:17;12.38;;;8.70;;
14080;SDS011;7116;52.152;5.392;2022-08-19T13:52:43;11.68;;;8.70;;
14080;SDS011;7116;52.152;5.392;2022-08-19T13:55:09;11.93;;;8.77;;
14080;SDS011;7116;52.152;5.392;2022-08-19T13:57:34;15.65;;;9.55;;
14080;SDS011;7116;52.152;5.392;2022-08-19T14:00:00;12.23;;;8.37;;
14080;SDS011;7116;52.152;5.392;2022-08-19T14:02:26;13.80;;;7.95;;
14080;SDS011;7116;52.152;5.392;2022-08-19T14:04:52;10.47;;;7.43;;
14080;SDS011;7116;52.152;5.392;2022-08-19T14:07:17;11.57;;;7.70;;
14080;SDS011;7116;52.152;5.392;2022-08-19T14:09:42;10.67;;;7.03;;
14080;SDS011;7116;52.152;5.392;2022-08-19T14:12:07;11.53;;;7.50;;
14080;SDS011;7116;52.152;5.392;2022-08-19T14:14:36;14.50;;;8.27;;
14080;SDS011;7116;52.152;5.392;2022-08-19T14:17:01;10.23;;;7.33;;
14080;SDS011;7116;52.152;5.392;2022-08-19T14:19:27;11.13;;;7.90;;
14080;SDS011;7116;52.152;5.392;2022-08-19T14:21:52;12.27;;;7.37;;
14080;SDS011;7116;52.152;5.392;2022-08-19T14:24:17;12.40;;;7.35;;
14080;SDS011;7116;52.152;5.392;2022-08-19T14:26:42;12.13;;;8.43;;
14080;SDS011;7116;52.152;5.392;2022-08-19T14:29:07;11.33;;;7.63;;
14080;SDS011;7116;52.152;5.392;2022-08-19T14:31:32;7.50;;;5.73;;
14080;SDS011;7116;52.152;5.392;2022-08-19T14:33:58;7.30;;;5.10;;
14080;SDS011;7116;52.152;5.392;2022-08-19T14:36:23;7.83;;;6.07;;
14080;SDS011;7116;52.152;5.392;2022-08-19T14:38:48;12.02;;;5.28;;
14080;SDS011;7116;52.152;5.392;2022-08-19T14:41:16;7.57;;;5.67;;
14080;SDS011;7116;52.152;5.392;2022-08-19T14:43:43;8.45;;;5.65;;
14080;SDS011;7116;52.152;5.392;2022-08-19T14:46:10;9.18;;;5.70;;
14080;SDS011;7116;52.152;5.392;2022-08-19T14:48:37;9.25;;;5.70;;
14080;SDS011;7116;52.152;5.392;2022-08-19T14:51:03;8.70;;;5.13;;
14080;SDS011;7116;52.152;5.392;2022-08-19T14:53:28;8.45;;;4.97;;
14080;SDS011;7116;52.152;5.392;2022-08-19T14:55:54;9.13;;;5.20;;
14080;SDS011;7116;52.152;5.392;2022-08-19T14:58:19;8.90;;;4.50;;